createdAt,value
2022-10-21T00:00:13.878Z,10.56
2022-10-21T00:02:15.480Z,10.55
2022-10-21T00:04:17.068Z,10.53
2022-10-21T00:06:18.702Z,10.48
2022-10-21T00:08:20.856Z,10.51
2022-10-21T00:10:22.657Z,10.50
2022-10-21T00:12:24.327Z,10.55
2022-10-21T00:14:25.933Z,10.57
2022-10-21T00:16:27.541Z,10.41
2022-10-21T00:18:29.730Z,10.35
2022-10-21T00:20:33.637Z,10.19
2022-10-21T00:22:38.033Z,10.08
2022-10-21T00:24:39.852Z,10.08
2022-10-21T00:26:41.474Z,10.07
2022-10-21T00:28:43.444Z,10.07
2022-10-21T00:30:46.062Z,10.12
2022-10-21T00:32:47.670Z,10.14
2022-10-21T00:34:49.292Z,10.14
2022-10-21T00:36:50.957Z,10.11
2022-10-21T00:38:53.609Z,10.05
2022-10-21T00:40:55.428Z,10.02
2022-10-21T00:42:57.034Z,9.89
2022-10-21T00:45:07.438Z,9.73
2022-10-21T00:47:16.125Z,9.39
2022-10-21T00:49:36.756Z,9.13
2022-10-21T00:51:38.640Z,9.10
2022-10-21T00:53:43.030Z,8.83
2022-10-21T00:55:51.886Z,8.38
2022-10-21T00:57:53.809Z,8.25
2022-10-21T00:59:59.355Z,8.14
2022-10-21T01:02:00.932Z,7.90
2022-10-21T01:04:03.965Z,8.06
2022-10-21T01:06:08.802Z,8.29
2022-10-21T01:08:10.571Z,8.53
2022-10-21T01:10:12.289Z,8.74
2022-10-21T01:12:36.947Z,8.97
2022-10-21T01:14:41.237Z,9.08
2022-10-21T01:16:48.325Z,9.12
2022-10-21T01:19:01.991Z,9.16
2022-10-21T01:21:18.892Z,9.20
2022-10-21T01:23:28.459Z,9.25
2022-10-21T01:26:00.339Z,9.32
2022-10-21T01:28:36.196Z,9.35
2022-10-21T01:30:58.131Z,9.32
2022-10-21T01:33:08.610Z,9.26
2022-10-21T01:35:25.345Z,9.23
2022-10-21T01:37:48.812Z,9.21
2022-10-21T01:39:53.644Z,9.18
2022-10-21T01:41:59.835Z,9.18
2022-10-21T01:44:10.055Z,9.17
2022-10-21T01:46:25.036Z,9.15
2022-10-21T01:48:33.689Z,9.08
2022-10-21T01:50:39.554Z,9.00
2022-10-21T01:52:42.916Z,8.99
2022-10-21T01:54:46.403Z,9.01
2022-10-21T01:56:48.999Z,9.07
2022-10-21T01:58:51.105Z,9.03
2022-10-21T02:00:54.398Z,8.85
2022-10-21T02:02:56.241Z,8.44
2022-10-21T02:04:59.504Z,8.30
2022-10-21T02:07:01.408Z,8.34
2022-10-21T02:09:03.213Z,8.42
2022-10-21T02:11:07.586Z,8.48
2022-10-21T02:13:11.537Z,8.60
2022-10-21T02:15:15.239Z,8.71
2022-10-21T02:17:18.901Z,8.74
2022-10-21T02:19:21.165Z,8.77
2022-10-21T02:21:23.941Z,8.85
2022-10-21T02:23:39.339Z,8.87
2022-10-21T02:25:42.754Z,8.88
2022-10-21T02:27:44.772Z,8.69
2022-10-21T02:29:47.523Z,8.55
2022-10-21T02:32:15.686Z,8.15
2022-10-21T02:34:27.721Z,8.07
2022-10-21T02:36:34.132Z,7.85
2022-10-21T02:38:52.871Z,7.73
2022-10-21T02:40:56.261Z,7.44
2022-10-21T02:43:13.958Z,7.42
2022-10-21T02:45:16.839Z,7.04
2022-10-21T02:47:18.550Z,7.12
2022-10-21T02:49:20.160Z,6.92
2022-10-21T02:51:21.845Z,7.09
2022-10-21T02:53:23.548Z,7.34
2022-10-21T02:55:25.238Z,7.48
2022-10-21T02:57:26.829Z,7.68
2022-10-21T02:59:28.375Z,7.86
2022-10-21T03:01:30.140Z,7.97
2022-10-21T03:03:31.972Z,8.11
2022-10-21T03:05:33.591Z,8.22
2022-10-21T03:07:36.052Z,8.25
2022-10-21T03:09:37.866Z,8.21
2022-10-21T03:11:39.524Z,7.72
2022-10-21T03:13:41.199Z,7.47
2022-10-21T03:15:42.892Z,7.20
2022-10-21T03:17:44.649Z,7.22
2022-10-21T03:19:46.250Z,7.31
2022-10-21T03:21:47.936Z,7.09
2022-10-21T03:23:49.575Z,7.07
2022-10-21T03:25:51.249Z,7.30
2022-10-21T03:27:52.936Z,7.48
2022-10-21T03:29:54.601Z,7.67
2022-10-21T03:31:56.258Z,7.76
2022-10-21T03:33:57.987Z,7.84
2022-10-21T03:35:59.613Z,7.89
2022-10-21T03:38:01.324Z,7.95
2022-10-21T03:40:05.420Z,8.00
2022-10-21T03:42:09.154Z,8.09
2022-10-21T03:44:10.825Z,8.09
2022-10-21T03:46:12.416Z,8.12
2022-10-21T03:48:14.167Z,8.14
2022-10-21T03:50:18.366Z,8.16
2022-10-21T03:52:23.877Z,8.18
2022-10-21T03:54:25.525Z,8.18
2022-10-21T03:56:27.318Z,8.23
2022-10-21T03:58:28.918Z,8.21
2022-10-21T04:00:31.720Z,8.17
2022-10-21T04:02:33.575Z,8.16
2022-10-21T04:04:35.234Z,8.16
2022-10-21T04:06:39.280Z,8.18
2022-10-21T04:08:40.992Z,8.15
2022-10-21T04:10:42.739Z,8.13
2022-10-21T04:12:44.383Z,8.12
2022-10-21T04:14:46.014Z,8.04
2022-10-21T04:16:48.017Z,8.11
2022-10-21T04:18:49.826Z,8.14
2022-10-21T04:20:51.452Z,8.19
2022-10-21T04:22:53.076Z,8.19
2022-10-21T04:24:54.765Z,8.20
2022-10-21T04:26:56.780Z,8.20
2022-10-21T04:28:58.396Z,8.19
2022-10-21T04:31:00.087Z,8.23
2022-10-21T04:33:01.938Z,8.25
2022-10-21T04:35:03.764Z,8.28
2022-10-21T04:37:05.517Z,8.35
2022-10-21T04:39:07.360Z,8.30
2022-10-21T04:41:08.939Z,8.33
2022-10-21T04:43:10.498Z,8.35
2022-10-21T04:45:12.326Z,8.35
2022-10-21T04:47:13.889Z,8.33
2022-10-21T04:49:15.515Z,8.30
2022-10-21T04:51:17.256Z,8.28
2022-10-21T04:53:18.953Z,8.29
2022-10-21T04:55:20.550Z,8.21
2022-10-21T04:57:22.156Z,8.17
2022-10-21T04:59:23.769Z,8.18
2022-10-21T05:01:25.594Z,8.18
2022-10-21T05:03:27.235Z,8.21
2022-10-21T05:05:28.977Z,8.25
2022-10-21T05:07:30.682Z,8.25
2022-10-21T05:09:32.317Z,8.25
2022-10-21T05:11:33.904Z,8.34
2022-10-21T05:13:35.503Z,8.40
2022-10-21T05:15:37.095Z,8.46
2022-10-21T05:17:39.024Z,8.51
2022-10-21T05:19:40.910Z,8.56
2022-10-21T05:21:42.623Z,8.68
2022-10-21T05:23:44.281Z,8.77
2022-10-21T05:25:46.683Z,8.87
2022-10-21T05:27:48.372Z,9.07
2022-10-21T05:29:50.006Z,9.11
2022-10-21T05:31:52.007Z,9.11
2022-10-21T05:33:53.622Z,8.99
2022-10-21T05:36:01.070Z,8.94
2022-10-21T05:38:04.461Z,8.97
2022-10-21T05:40:06.893Z,9.07
2022-10-21T05:42:08.499Z,9.13
2022-10-21T05:44:10.337Z,9.21
2022-10-21T05:46:11.962Z,9.31
2022-10-21T05:48:17.803Z,9.40
2022-10-21T05:50:19.762Z,9.50
2022-10-21T05:52:21.481Z,9.56
2022-10-21T05:54:23.256Z,9.63
2022-10-21T05:56:25.010Z,9.62
2022-10-21T05:58:27.679Z,9.66
2022-10-21T06:00:29.449Z,9.63
2022-10-21T06:02:31.126Z,9.64
2022-10-21T06:04:37.790Z,9.68
2022-10-21T06:06:40.505Z,9.71
2022-10-21T06:08:42.144Z,9.72
2022-10-21T06:10:44.553Z,9.78
2022-10-21T06:12:46.275Z,9.83
2022-10-21T06:14:47.855Z,9.92
2022-10-21T06:16:49.710Z,9.95
2022-10-21T06:18:51.408Z,10.00
2022-10-21T06:20:53.199Z,10.06
2022-10-21T06:22:54.844Z,10.20
2022-10-21T06:24:56.414Z,10.30
2022-10-21T06:26:58.044Z,10.34
2022-10-21T06:28:59.769Z,10.23
2022-10-21T06:31:01.556Z,10.25
2022-10-21T06:33:03.219Z,10.34
2022-10-21T06:35:05.080Z,10.05
2022-10-21T06:37:06.667Z,10.08
2022-10-21T06:39:08.661Z,10.14
2022-10-21T06:41:13.639Z,10.25
2022-10-21T06:43:16.762Z,9.88
2022-10-21T06:45:18.470Z,9.69
2022-10-21T06:47:20.112Z,9.52
2022-10-21T06:49:21.747Z,9.48
2022-10-21T06:51:24.591Z,9.42
2022-10-21T06:53:26.316Z,9.47
2022-10-21T06:55:27.961Z,9.42
2022-10-21T06:57:29.764Z,9.68
2022-10-21T06:59:31.679Z,9.95
2022-10-21T07:01:48.375Z,10.14
2022-10-21T07:03:55.541Z,10.41
2022-10-21T07:06:00.648Z,10.50
2022-10-21T07:08:02.816Z,10.52
2022-10-21T07:10:05.092Z,10.29
2022-10-21T07:12:06.718Z,10.03
2022-10-21T07:14:08.366Z,10.08
2022-10-21T07:16:39.462Z,10.22
2022-10-21T07:18:42.646Z,10.12
2022-10-21T07:20:44.402Z,10.02
2022-10-21T07:22:46.169Z,10.07
2022-10-21T07:24:47.816Z,10.22
2022-10-21T07:26:49.889Z,10.47
2022-10-21T07:28:52.433Z,10.74
2022-10-21T07:30:54.021Z,11.04
2022-10-21T07:33:01.851Z,11.31
2022-10-21T07:35:03.897Z,11.48
2022-10-21T07:37:05.534Z,11.70
2022-10-21T07:39:10.632Z,11.78
2022-10-21T07:41:24.045Z,11.92
2022-10-21T07:43:25.766Z,12.05
2022-10-21T07:45:27.385Z,11.98
2022-10-21T07:47:29.078Z,11.47
2022-10-21T07:49:30.883Z,11.59
2022-10-21T07:51:32.559Z,11.75
2022-10-21T07:53:34.559Z,11.73
2022-10-21T07:55:36.203Z,11.85
2022-10-21T07:57:37.975Z,11.82
2022-10-21T07:59:39.633Z,11.59
2022-10-21T08:01:44.867Z,11.83
2022-10-21T08:03:47.283Z,11.64
2022-10-21T08:05:48.876Z,11.43
2022-10-21T08:07:50.982Z,11.21
2022-10-21T08:09:52.578Z,11.34
2022-10-21T08:11:54.211Z,11.66
2022-10-21T08:13:57.146Z,11.81
2022-10-21T08:15:59.225Z,11.72
2022-10-21T08:18:00.837Z,11.72
2022-10-21T08:20:02.743Z,11.95
2022-10-21T08:22:04.865Z,12.23
2022-10-21T08:24:06.694Z,12.48
2022-10-21T08:26:10.888Z,12.53
2022-10-21T08:28:12.516Z,12.62
2022-10-21T08:30:15.717Z,12.58
2022-10-21T08:32:17.294Z,12.68
2022-10-21T08:34:18.914Z,12.79
2022-10-21T08:36:23.104Z,12.96
2022-10-21T08:38:24.762Z,12.75
2022-10-21T08:40:30.025Z,12.12
2022-10-21T08:42:31.959Z,11.90
2022-10-21T08:45:09.420Z,12.06
2022-10-21T08:47:21.320Z,11.76
2022-10-21T08:49:30.846Z,11.81
2022-10-21T08:51:36.316Z,12.13
2022-10-21T08:53:41.653Z,12.09
2022-10-21T08:55:45.501Z,12.38
2022-10-21T08:57:50.425Z,12.40
2022-10-21T08:59:52.135Z,12.26
2022-10-21T09:02:16.435Z,12.43
2022-10-21T09:04:52.016Z,12.20
2022-10-21T09:07:02.878Z,12.55
2022-10-21T09:09:14.503Z,12.57
2022-10-21T09:11:19.670Z,12.96
2022-10-21T09:13:38.266Z,13.41
2022-10-21T09:16:01.454Z,13.76
2022-10-21T09:18:21.205Z,13.58
2022-10-21T09:21:20.511Z,13.57
2022-10-21T09:23:58.685Z,13.52
2022-10-21T09:26:01.263Z,13.67
2022-10-21T09:28:28.473Z,13.99
2022-10-21T09:30:30.122Z,14.21
2022-10-21T09:32:38.833Z,14.45
2022-10-21T09:34:49.321Z,14.69
2022-10-21T09:36:52.413Z,14.80
2022-10-21T09:39:01.761Z,14.84
2022-10-21T09:41:06.065Z,14.79
2022-10-21T09:43:16.587Z,14.78
2022-10-21T09:45:35.874Z,14.97
2022-10-21T09:47:37.462Z,15.22
2022-10-21T09:50:05.992Z,15.38
2022-10-21T09:52:03.634Z,15.43
2022-10-21T09:54:10.283Z,15.46
2022-10-21T09:56:24.154Z,15.30
2022-10-21T09:58:27.988Z,15.38
2022-10-21T10:00:48.319Z,15.47
2022-10-21T10:02:49.977Z,15.71
2022-10-21T10:04:51.690Z,15.83
2022-10-21T10:06:53.871Z,15.92
2022-10-21T10:09:14.058Z,16.02
2022-10-21T10:11:18.784Z,16.05
2022-10-21T10:13:20.595Z,15.94
2022-10-21T10:15:30.781Z,15.80
2022-10-21T10:17:37.248Z,15.59
2022-10-21T10:19:38.859Z,15.60
2022-10-21T10:21:40.542Z,15.19
2022-10-21T10:24:02.696Z,15.01
2022-10-21T10:26:04.411Z,14.74
2022-10-21T10:28:08.796Z,14.47
2022-10-21T10:30:14.056Z,14.53
2022-10-21T10:32:16.482Z,14.55
2022-10-21T10:34:23.738Z,14.92
2022-10-21T10:36:29.191Z,15.16
2022-10-21T10:38:53.015Z,15.22
2022-10-21T10:40:56.427Z,15.54
2022-10-21T10:43:07.654Z,15.44
2022-10-21T10:45:20.365Z,15.14
2022-10-21T10:47:26.909Z,15.18
2022-10-21T10:49:35.169Z,15.44
2022-10-21T10:51:36.877Z,15.76
2022-10-21T10:53:38.695Z,16.04
2022-10-21T10:55:44.013Z,16.31
2022-10-21T10:57:59.094Z,16.50
2022-10-21T11:00:19.853Z,16.68
2022-10-21T11:02:39.987Z,16.68
2022-10-21T11:04:43.833Z,16.64
2022-10-21T11:06:51.529Z,16.76
2022-10-21T11:08:55.933Z,16.91
2022-10-21T11:11:01.338Z,16.98
2022-10-21T11:13:05.540Z,16.82
2022-10-21T11:15:12.405Z,16.89
2022-10-21T11:17:17.030Z,16.52
2022-10-21T11:19:43.820Z,16.23
2022-10-21T11:21:53.552Z,16.42
2022-10-21T11:24:16.594Z,16.56
2022-10-21T11:26:34.008Z,16.64
2022-10-21T11:28:47.602Z,16.65
2022-10-21T11:31:21.841Z,16.47
2022-10-21T11:33:44.505Z,16.64
2022-10-21T11:36:15.377Z,16.47
2022-10-21T11:38:29.129Z,16.30
2022-10-21T11:40:36.293Z,16.50
2022-10-21T11:42:43.399Z,16.22
2022-10-21T11:45:12.855Z,16.14
2022-10-21T11:47:42.066Z,15.87
2022-10-21T11:52:48.992Z,16.23
2022-10-21T11:55:10.763Z,16.32
2022-10-21T11:57:29.217Z,16.47
2022-10-21T11:59:57.961Z,16.54
2022-10-21T12:02:17.877Z,16.51
2022-10-21T12:04:28.802Z,16.49
2022-10-21T12:06:45.191Z,16.63
2022-10-21T12:09:06.746Z,16.81
2022-10-21T12:11:22.539Z,16.84
2022-10-21T12:13:33.930Z,16.87
2022-10-21T12:15:41.854Z,16.87
2022-10-21T12:17:44.558Z,16.61
2022-10-21T12:19:54.455Z,16.66
2022-10-21T12:21:56.155Z,16.78
2022-10-21T12:24:34.119Z,16.92
2022-10-21T12:26:40.539Z,16.99
2022-10-21T12:28:57.194Z,17.10
2022-10-21T12:31:13.729Z,17.15
2022-10-21T12:33:25.173Z,17.14
2022-10-21T12:35:46.515Z,16.96
2022-10-21T12:37:53.328Z,16.88
2022-10-21T12:40:09.924Z,16.98
2022-10-21T12:42:15.363Z,17.00
2022-10-21T12:44:21.941Z,17.01
2022-10-21T12:46:26.462Z,17.11
2022-10-21T12:48:34.598Z,17.20
2022-10-21T12:50:36.336Z,17.29
2022-10-21T12:52:39.039Z,17.33
2022-10-21T12:54:54.338Z,17.16
2022-10-21T12:57:01.878Z,16.92
2022-10-21T12:59:06.845Z,16.71
2022-10-21T13:01:34.165Z,16.71
2022-10-21T13:03:45.016Z,16.85
2022-10-21T13:05:46.589Z,16.56
2022-10-21T13:08:20.131Z,16.20
2022-10-21T13:10:25.355Z,16.28
2022-10-21T13:12:31.465Z,16.48
2022-10-21T13:14:48.540Z,16.61
2022-10-21T13:16:50.157Z,16.73
2022-10-21T13:19:06.081Z,16.84
2022-10-21T13:21:23.257Z,17.00
2022-10-21T13:23:32.967Z,16.97
2022-10-21T13:25:38.261Z,16.97
2022-10-21T13:27:40.411Z,16.99
2022-10-21T13:29:47.032Z,17.07
2022-10-21T13:32:14.101Z,17.14
2022-10-21T13:34:28.459Z,17.23
2022-10-21T13:36:42.945Z,17.30
2022-10-21T13:38:53.040Z,17.29
2022-10-21T13:41:05.564Z,17.34
2022-10-21T13:43:16.247Z,17.39
2022-10-21T13:45:30.879Z,17.38
2022-10-21T13:47:35.212Z,17.44
2022-10-21T13:49:36.876Z,17.48
2022-10-21T13:51:45.857Z,17.53
2022-10-21T13:53:48.866Z,17.55
2022-10-21T13:56:23.967Z,17.56
2022-10-21T13:58:26.925Z,17.47
2022-10-21T14:00:30.739Z,17.47
2022-10-21T14:02:32.449Z,17.46
2022-10-21T14:04:34.748Z,17.30
2022-10-21T14:06:40.962Z,17.31
2022-10-21T14:08:44.634Z,17.36
2022-10-21T14:10:46.780Z,17.39
2022-10-21T14:12:49.012Z,17.48
2022-10-21T14:14:51.814Z,17.44
2022-10-21T14:16:56.965Z,17.48
2022-10-21T14:18:59.489Z,17.54
2022-10-21T14:23:21.725Z,17.70
2022-10-21T14:25:23.413Z,17.75
2022-10-21T14:27:30.611Z,17.74
2022-10-21T14:29:35.029Z,17.76
2022-10-21T14:31:36.700Z,17.79
2022-10-21T14:33:43.441Z,17.84
2022-10-21T14:35:45.055Z,17.90
2022-10-21T14:37:49.045Z,17.93
2022-10-21T14:39:50.742Z,17.92
2022-10-21T14:41:52.476Z,17.95
2022-10-21T14:43:54.679Z,17.98
2022-10-21T14:45:56.475Z,18.01
2022-10-21T14:48:08.353Z,18.01
2022-10-21T14:50:18.907Z,17.97
2022-10-21T14:52:42.929Z,17.89
2022-10-21T14:54:47.286Z,17.75
2022-10-21T14:56:49.095Z,17.66
2022-10-21T14:58:57.038Z,17.59
2022-10-21T15:01:00.420Z,17.53
2022-10-21T15:03:02.148Z,17.49
2022-10-21T15:05:34.641Z,17.46
2022-10-21T15:07:38.798Z,17.42
2022-10-21T15:10:18.965Z,17.33
2022-10-21T15:12:20.556Z,17.23
2022-10-21T15:14:28.843Z,17.12
2022-10-21T15:16:30.761Z,17.02
2022-10-21T15:18:43.816Z,16.88
2022-10-21T15:20:50.653Z,16.78
2022-10-21T15:22:53.425Z,16.66
2022-10-21T15:24:58.906Z,16.57
2022-10-21T15:27:01.801Z,16.48
2022-10-21T15:29:14.901Z,16.38
2022-10-21T15:31:23.860Z,16.32
2022-10-21T15:33:27.388Z,16.22
2022-10-21T15:35:28.941Z,16.15
2022-10-21T15:37:30.532Z,16.10
2022-10-21T15:39:32.275Z,16.02
2022-10-21T15:41:33.986Z,15.96
2022-10-21T15:43:35.590Z,15.89
2022-10-21T15:45:37.294Z,15.85
2022-10-21T15:47:39.070Z,15.80
2022-10-21T15:49:45.955Z,15.75
2022-10-21T15:51:48.690Z,15.71
2022-10-21T15:53:50.313Z,15.67
2022-10-21T15:55:51.877Z,15.62
2022-10-21T15:57:53.797Z,15.57
2022-10-21T15:59:55.394Z,15.52
2022-10-21T16:01:58.059Z,15.47
2022-10-21T16:04:00.086Z,15.38
2022-10-21T16:06:01.672Z,15.33
2022-10-21T16:08:03.406Z,15.29
2022-10-21T16:10:32.707Z,15.22
2022-10-21T16:12:34.380Z,15.18
2022-10-21T16:14:36.014Z,15.09
2022-10-21T16:16:39.226Z,15.05
2022-10-21T16:18:40.887Z,15.00
2022-10-21T16:20:43.243Z,14.94
2022-10-21T16:22:45.106Z,14.88
2022-10-21T16:24:46.732Z,14.84
2022-10-21T16:26:49.208Z,14.79
2022-10-21T16:28:52.328Z,14.76
2022-10-21T16:30:53.979Z,14.74
2022-10-21T16:32:57.252Z,14.73
2022-10-21T16:34:59.087Z,14.71
2022-10-21T16:37:01.611Z,14.66
2022-10-21T16:39:17.638Z,14.64
2022-10-21T16:41:21.684Z,14.58
2022-10-21T16:43:24.073Z,14.52
2022-10-21T16:45:29.045Z,14.48
2022-10-21T16:47:30.865Z,14.45
2022-10-21T16:49:33.122Z,14.41
2022-10-21T16:51:36.506Z,14.39
2022-10-21T16:53:38.532Z,14.39
2022-10-21T16:55:40.185Z,14.36
2022-10-21T16:57:42.313Z,14.30
2022-10-21T16:59:44.136Z,14.24
2022-10-21T17:01:45.955Z,14.21
2022-10-21T17:03:47.560Z,14.11
2022-10-21T17:05:52.580Z,14.07
2022-10-21T17:07:54.976Z,14.06
2022-10-21T17:09:56.569Z,14.03
2022-10-21T17:11:58.144Z,13.98
2022-10-21T17:14:01.006Z,13.84
2022-10-21T17:16:02.676Z,13.50
2022-10-21T17:18:04.283Z,13.48
2022-10-21T17:20:06.441Z,13.52
2022-10-21T17:22:13.819Z,13.57
2022-10-21T17:24:17.732Z,13.64
2022-10-21T17:26:19.621Z,13.55
2022-10-21T17:28:21.620Z,13.29
2022-10-21T17:30:24.054Z,13.28
2022-10-21T17:32:25.664Z,13.22
2022-10-21T17:34:32.579Z,13.26
2022-10-21T17:36:38.103Z,13.35
2022-10-21T17:38:40.125Z,13.42
2022-10-21T17:40:41.882Z,13.43
2022-10-21T17:42:43.600Z,13.47
2022-10-21T17:44:45.281Z,13.44
2022-10-21T17:46:54.368Z,13.44
2022-10-21T17:48:57.512Z,13.29
2022-10-21T17:51:01.658Z,13.11
2022-10-21T17:53:03.310Z,13.08
2022-10-21T17:55:06.268Z,13.11
2022-10-21T17:57:07.993Z,13.20
2022-10-21T17:59:10.030Z,13.13
2022-10-21T18:01:13.335Z,13.07
2022-10-21T18:03:18.065Z,13.03
2022-10-21T18:05:19.850Z,13.07
2022-10-21T18:07:22.000Z,13.11
2022-10-21T18:09:23.746Z,13.04
2022-10-21T18:11:26.073Z,12.84
2022-10-21T18:13:30.020Z,12.78
2022-10-21T18:15:31.709Z,12.84
2022-10-21T18:17:34.513Z,12.89
2022-10-21T18:19:36.351Z,12.97
2022-10-21T18:21:38.987Z,13.00
2022-10-21T18:23:41.873Z,13.04
2022-10-21T18:25:43.567Z,13.07
2022-10-21T18:27:45.167Z,13.08
2022-10-21T18:29:46.945Z,13.09
2022-10-21T18:31:48.641Z,13.09
2022-10-21T18:33:50.188Z,12.85
2022-10-21T18:35:51.875Z,12.64
2022-10-21T18:37:53.532Z,12.53
2022-10-21T18:39:58.146Z,12.35
2022-10-21T18:42:00.876Z,12.28
2022-10-21T18:44:08.211Z,12.33
2022-10-21T18:46:09.967Z,12.37
2022-10-21T18:48:11.578Z,12.40
2022-10-21T18:50:14.346Z,12.46
2022-10-21T18:52:15.917Z,12.40
2022-10-21T18:54:17.628Z,12.39
2022-10-21T18:56:20.128Z,12.33
2022-10-21T18:58:21.746Z,12.30
2022-10-21T19:00:23.341Z,12.33
2022-10-21T19:02:25.208Z,12.36
2022-10-21T19:04:26.975Z,12.41
2022-10-21T19:06:42.943Z,12.45
2022-10-21T19:08:44.948Z,12.42
2022-10-21T19:10:47.079Z,12.46
2022-10-21T19:12:48.766Z,12.46
2022-10-21T19:14:50.799Z,12.46
2022-10-21T19:16:52.425Z,12.45
2022-10-21T19:18:54.853Z,12.47
2022-10-21T19:20:56.835Z,12.51
2022-10-21T19:22:58.450Z,12.51
2022-10-21T19:25:00.157Z,12.49
2022-10-21T19:27:01.796Z,12.50
2022-10-21T19:29:08.790Z,12.48
2022-10-21T19:31:13.488Z,12.46
2022-10-21T19:33:15.053Z,12.28
2022-10-21T19:35:16.719Z,12.18
2022-10-21T19:37:18.407Z,12.02
2022-10-21T19:39:20.187Z,11.98
2022-10-21T19:41:22.986Z,11.97
2022-10-21T19:43:25.821Z,11.92
2022-10-21T19:45:27.548Z,11.96
2022-10-21T19:47:31.209Z,11.97
2022-10-21T19:49:33.170Z,11.67
2022-10-21T19:51:35.530Z,11.40
2022-10-21T19:53:37.188Z,11.06
2022-10-21T19:55:38.941Z,10.95
2022-10-21T19:57:40.808Z,11.05
2022-10-21T19:59:42.424Z,11.22
2022-10-21T20:01:44.180Z,11.39
2022-10-21T20:03:47.101Z,11.53
2022-10-21T20:05:48.667Z,11.62
2022-10-21T20:07:50.235Z,11.62
2022-10-21T20:09:51.945Z,11.69
2022-10-21T20:11:55.010Z,11.68
2022-10-21T20:13:56.806Z,11.74
2022-10-21T20:15:59.291Z,11.80
2022-10-21T20:18:01.008Z,11.81
2022-10-21T20:20:02.590Z,11.79
2022-10-21T20:22:04.425Z,11.79
2022-10-21T20:24:06.309Z,11.78
2022-10-21T20:26:08.137Z,11.82
2022-10-21T20:28:09.809Z,11.83
2022-10-21T20:30:11.852Z,11.85
2022-10-21T20:32:13.447Z,11.86
2022-10-21T20:34:15.269Z,11.86
2022-10-21T20:36:23.040Z,11.82
2022-10-21T20:38:24.668Z,11.73
2022-10-21T20:40:27.531Z,11.71
2022-10-21T20:42:29.116Z,11.69
2022-10-21T20:44:30.742Z,11.73
2022-10-21T20:46:35.270Z,11.73
2022-10-21T20:48:40.830Z,11.70
2022-10-21T20:50:42.539Z,11.71
2022-10-21T20:52:44.210Z,11.70
2022-10-21T20:54:45.823Z,11.72
2022-10-21T20:56:47.425Z,11.71
2022-10-21T20:58:49.056Z,11.71
2022-10-21T21:00:50.724Z,11.71
2022-10-21T21:02:52.367Z,11.71
2022-10-21T21:04:55.164Z,11.67
2022-10-21T21:06:56.803Z,11.65
2022-10-21T21:09:28.874Z,11.60
2022-10-21T21:11:20.081Z,11.61
2022-10-21T21:13:21.665Z,11.60
2022-10-21T21:15:23.293Z,11.52
2022-10-21T21:17:25.129Z,11.21
2022-10-21T21:19:26.839Z,10.82
2022-10-21T21:21:29.328Z,10.73
2022-10-21T21:23:31.009Z,10.82
2022-10-21T21:25:32.642Z,10.95
2022-10-21T21:27:34.266Z,11.03
2022-10-21T21:29:36.232Z,11.09
2022-10-21T21:31:38.730Z,11.15
2022-10-21T21:33:40.659Z,11.17
2022-10-21T21:35:42.275Z,11.16
2022-10-21T21:37:43.944Z,11.20
2022-10-21T21:39:45.503Z,11.23
2022-10-21T21:41:47.170Z,11.24
2022-10-21T21:43:50.408Z,11.26
2022-10-21T21:45:51.989Z,11.22
2022-10-21T21:47:53.599Z,11.20
2022-10-21T21:49:55.211Z,11.20
2022-10-21T21:51:56.819Z,11.17
2022-10-21T21:53:59.029Z,11.14
2022-10-21T21:56:03.328Z,11.07
2022-10-21T21:58:05.681Z,10.95
2022-10-21T22:00:08.015Z,10.93
2022-10-21T22:02:10.067Z,10.97
2022-10-21T22:04:11.615Z,10.87
2022-10-21T22:06:14.124Z,10.63
2022-10-21T22:08:15.796Z,10.31
2022-10-21T22:10:17.915Z,10.25
2022-10-21T22:12:22.932Z,10.35
2022-10-21T22:14:24.875Z,10.45
2022-10-21T22:16:30.293Z,10.52
2022-10-21T22:18:32.508Z,10.55
2022-10-21T22:20:34.163Z,10.56
2022-10-21T22:22:36.145Z,10.55
2022-10-21T22:24:38.135Z,10.54
2022-10-21T22:26:39.772Z,10.56
2022-10-21T22:28:42.224Z,10.61
2022-10-21T22:30:43.884Z,10.63
2022-10-21T22:32:45.530Z,10.69
2022-10-21T22:34:47.187Z,10.71
2022-10-21T22:36:49.019Z,10.70
2022-10-21T22:38:50.647Z,10.68
2022-10-21T22:40:56.666Z,10.70
2022-10-21T22:42:58.349Z,10.73
2022-10-21T22:45:00.065Z,10.75
2022-10-21T22:47:01.681Z,10.78
2022-10-21T22:49:06.519Z,10.75
2022-10-21T22:51:08.111Z,10.76
2022-10-21T22:53:09.992Z,10.76
2022-10-21T22:55:11.728Z,10.74
2022-10-21T22:57:13.349Z,10.76
2022-10-21T22:59:14.969Z,10.75
2022-10-21T23:01:16.574Z,10.75
2022-10-21T23:03:19.766Z,10.75
2022-10-21T23:05:21.426Z,10.75
2022-10-21T23:07:23.116Z,10.75
2022-10-21T23:09:24.902Z,10.76
2022-10-21T23:11:27.084Z,10.74
2022-10-21T23:13:28.944Z,10.73
2022-10-21T23:15:30.533Z,10.74
2022-10-21T23:17:32.152Z,10.72
2022-10-21T23:19:33.808Z,10.73
2022-10-21T23:21:35.815Z,10.66
2022-10-21T23:23:37.498Z,10.65
2022-10-21T23:25:39.111Z,10.64
2022-10-21T23:27:40.787Z,10.60
2022-10-21T23:29:42.671Z,10.57
2022-10-21T23:31:44.325Z,10.56
2022-10-21T23:33:45.870Z,10.54
2022-10-21T23:35:47.482Z,10.56
2022-10-21T23:37:49.129Z,10.58
2022-10-21T23:39:50.744Z,10.59
2022-10-21T23:41:52.315Z,10.60
2022-10-21T23:43:54.210Z,10.59
2022-10-21T23:45:56.153Z,10.55
2022-10-21T23:47:57.844Z,10.54
2022-10-21T23:49:59.675Z,10.53
2022-10-21T23:52:01.632Z,10.51
2022-10-21T23:54:03.304Z,10.41
2022-10-21T23:56:05.512Z,10.05
2022-10-21T23:58:07.752Z,10.00
